Terminal Aerodrome Forecast
Issued by NWS

Home | Current Version | Previous Version | Text Only | Print | Product List | Glossary On
Versions: 1 2 3 4 5 6 7 8 9 10 11 12 13 14 15 16 17 18 19 20
000
FTUS41 KCAR 051740
TAFHUL
TAF
KHUL 051740Z 0518/0618 32013G22KT P6SM SCT035
     FM052200 33008KT P6SM FEW050
     FM060000 VRB03KT P6SM FEW200
     FM061600 25007KT P6SM SCT120=

USA.gov is the U.S. government's official web portal to all federal, state and local government web resources and services.